Time;durP1;ratioP1;P1;durP2;ratioP2;P2;SDS_P1;SDS_P2;PMS_P1;PMS_P2;Temp;Humidity;BMP_temperature;BMP_pressure;BME280_temperature;BME280_humidity;BME280_pressure;Samples;Min_cycle;Max_cycle;Signal;HPM_P1;HPM_P2
2022/02/24 00:04:01;;;;;;;14.60;3.78;;;5.20;99.90;;;;;;10349135;28;20041;-62
2022/02/24 00:09:04;;;;;;;8.98;2.75;;;5.20;99.90;;;;;;10345305;28;20050;-62
2022/02/24 00:14:06;;;;;;;3.60;2.17;;;5.20;99.90;;;;;;10343029;28;20065;-62
2022/02/24 00:19:08;;;;;;;12.25;2.42;;;5.30;99.90;;;;;;10350948;28;20421;-62
2022/02/24 00:24:10;;;;;;;7.38;2.03;;;5.30;99.90;;;;;;10343294;28;20045;-63
2022/02/24 00:29:11;;;;;;;8.68;1.88;;;5.30;99.90;;;;;;10338126;28;20046;-62
2022/02/24 00:34:15;;;;;;;5.10;2.00;;;5.40;99.90;;;;;;10345272;28;20061;-62
2022/02/24 00:39:18;;;;;;;6.55;2.22;;;5.40;99.90;;;;;;10347292;28;20623;-62
2022/02/24 00:44:19;;;;;;;9.10;2.72;;;5.40;99.90;;;;;;10342866;28;20053;-62
2022/02/24 00:49:23;;;;;;;6.32;2.42;;;5.50;99.90;;;;;;10342584;28;20125;-62
2022/02/24 00:54:25;;;;;;;9.18;2.28;;;5.40;99.90;;;;;;10347102;28;20144;-62
2022/02/24 00:59:27;;;;;;;8.35;1.90;;;5.40;99.90;;;;;;10343292;28;20045;-62
2022/02/24 01:04:28;;;;;;;5.75;2.03;;;5.40;99.90;;;;;;10349799;28;20045;-62
2022/02/24 01:09:30;;;;;;;7.32;3.05;;;5.50;99.90;;;;;;10341738;28;20582;-62
2022/02/24 01:14:32;;;;;;;7.72;2.08;;;5.40;99.90;;;;;;10342426;28;20042;-62
2022/02/24 01:19:33;;;;;;;5.93;2.33;;;5.50;99.90;;;;;;10331864;28;20073;-62
2022/02/24 01:24:35;;;;;;;9.93;2.33;;;5.50;99.90;;;;;;10334571;28;20081;-62
2022/02/24 01:29:37;;;;;;;6.97;2.28;;;5.40;99.90;;;;;;10340893;28;20081;-62
2022/02/24 01:34:38;;;;;;;15.65;3.95;;;5.40;99.90;;;;;;10341667;28;20103;-62
2022/02/24 01:39:40;;;;;;;6.10;2.15;;;5.40;99.90;;;;;;10347861;28;20053;-62
2022/02/24 01:44:45;;;;;;;9.10;1.88;;;5.40;99.90;;;;;;10333883;28;20217;-62
2022/02/24 01:49:47;;;;;;;5.00;2.58;;;5.40;99.90;;;;;;10344746;28;20075;-62
2022/02/24 01:54:49;;;;;;;8.43;2.33;;;5.40;99.90;;;;;;10337392;28;20234;-62
2022/02/24 01:59:52;;;;;;;7.03;2.78;;;5.40;99.90;;;;;;10346460;28;20409;-62
2022/02/24 02:04:54;;;;;;;6.57;1.83;;;5.40;99.90;;;;;;10332287;28;20100;-62
2022/02/24 02:09:56;;;;;;;9.27;1.85;;;5.40;99.90;;;;;;10332058;28;20053;-62
2022/02/24 02:14:57;;;;;;;11.38;2.05;;;5.50;99.90;;;;;;10338473;28;20531;-62
2022/02/24 02:19:59;;;;;;;10.40;3.05;;;5.50;99.90;;;;;;10332969;28;20063;-62
2022/02/24 02:25:03;;;;;;;7.78;2.00;;;5.60;99.90;;;;;;10335114;28;20085;-62
2022/02/24 02:30:07;;;;;;;7.53;2.10;;;5.70;99.90;;;;;;10337104;28;20096;-62
2022/02/24 02:35:10;;;;;;;7.88;1.77;;;5.80;99.90;;;;;;10342960;28;20107;-63
2022/02/24 02:40:14;;;;;;;6.72;2.53;;;5.80;99.90;;;;;;10342697;28;20049;-62
2022/02/24 02:45:16;;;;;;;4.40;1.92;;;5.90;99.90;;;;;;10345660;28;20077;-62
2022/02/24 02:50:18;;;;;;;9.88;2.83;;;5.90;99.90;;;;;;10351259;28;20049;-62
2022/02/24 02:55:20;;;;;;;11.35;3.55;;;5.90;99.90;;;;;;10345059;28;20054;-63
2022/02/24 03:00:22;;;;;;;6.20;2.10;;;6.00;99.90;;;;;;10340936;28;20533;-62
2022/02/24 03:05:23;;;;;;;7.53;2.17;;;6.00;99.90;;;;;;10351807;28;20447;-62
2022/02/24 03:10:25;;;;;;;5.15;2.17;;;6.00;99.90;;;;;;10347339;28;20159;-63
2022/02/24 03:15:27;;;;;;;5.32;1.90;;;6.00;99.90;;;;;;10351998;28;20096;-62
2022/02/24 03:20:32;;;;;;;11.40;2.70;;;6.00;99.90;;;;;;10342567;28;20061;-62
2022/02/24 03:25:35;;;;;;;10.07;2.63;;;5.90;99.90;;;;;;10348332;28;20054;-62
2022/02/24 03:30:37;;;;;;;11.32;2.80;;;5.90;99.90;;;;;;10349435;28;20131;-62
2022/02/24 03:35:43;;;;;;;5.72;2.42;;;5.90;99.90;;;;;;10332542;28;20104;-62
2022/02/24 03:40:45;;;;;;;5.40;2.58;;;5.90;99.90;;;;;;10349275;28;20060;-62
2022/02/24 03:45:46;;;;;;;6.20;3.00;;;5.90;99.90;;;;;;10348820;28;20129;-62
2022/02/24 03:50:51;;;;;;;6.22;2.03;;;5.90;99.90;;;;;;10343182;28;20283;-62
2022/02/24 03:55:52;;;;;;;9.93;2.47;;;5.90;99.90;;;;;;10342827;28;20090;-62
2022/02/24 04:00:54;;;;;;;6.95;2.08;;;5.90;99.90;;;;;;10343688;28;20062;-62
2022/02/24 04:05:59;;;;;;;7.85;2.67;;;5.90;99.90;;;;;;10347893;28;20042;-62
2022/02/24 04:11:01;;;;;;;8.60;2.60;;;5.90;99.90;;;;;;10345669;28;20054;-62
2022/02/24 04:16:03;;;;;;;8.70;2.53;;;5.90;99.90;;;;;;10350361;28;20362;-62
2022/02/24 04:21:05;;;;;;;5.30;2.45;;;5.90;99.90;;;;;;10344776;28;20104;-63
2022/02/24 04:26:07;;;;;;;6.05;2.20;;;5.90;99.90;;;;;;10346383;28;20045;-62
2022/02/24 04:31:08;;;;;;;5.78;2.67;;;5.90;99.90;;;;;;10344044;28;20916;-63
2022/02/24 04:36:10;;;;;;;8.75;2.30;;;5.90;99.90;;;;;;10344426;28;20163;-63
2022/02/24 04:41:12;;;;;;;8.18;2.40;;;6.00;99.90;;;;;;10344164;28;20128;-60
2022/02/24 04:46:15;;;;;;;7.75;3.28;;;5.90;99.90;;;;;;10350461;28;20049;-60
2022/02/24 04:51:17;;;;;;;12.05;3.60;;;5.90;99.90;;;;;;10339708;28;20053;-60
2022/02/24 04:56:19;;;;;;;8.40;2.90;;;6.00;99.90;;;;;;10339436;28;20049;-60
2022/02/24 05:01:21;;;;;;;6.95;3.00;;;6.00;99.90;;;;;;10343548;28;20046;-60
2022/02/24 05:06:23;;;;;;;6.28;2.30;;;6.00;99.90;;;;;;10342520;28;20830;-62
2022/02/24 05:11:24;;;;;;;8.30;2.83;;;6.00;99.90;;;;;;10339150;28;20132;-62
2022/02/24 05:16:26;;;;;;;5.28;2.70;;;6.00;99.90;;;;;;10348506;28;20544;-61
2022/02/24 05:21:28;;;;;;;8.63;2.85;;;6.00;99.90;;;;;;10339325;28;20053;-61
2022/02/24 05:26:31;;;;;;;6.82;1.98;;;6.00;99.90;;;;;;10344100;28;20493;-61
2022/02/24 05:31:33;;;;;;;5.57;2.40;;;5.90;99.90;;;;;;10341769;28;20132;-61
2022/02/24 05:36:35;;;;;;;4.78;2.28;;;5.90;99.90;;;;;;10337675;28;20117;-62
2022/02/24 05:41:36;;;;;;;8.90;2.90;;;6.00;99.90;;;;;;10334411;28;20133;-62
2022/02/24 05:46:38;;;;;;;10.00;2.70;;;6.00;99.90;;;;;;10346879;28;20132;-62
2022/02/24 05:51:41;;;;;;;8.73;3.28;;;6.00;99.90;;;;;;10332790;28;20076;-62
2022/02/24 05:56:43;;;;;;;6.20;3.25;;;6.10;99.90;;;;;;10347036;28;20050;-62
2022/02/24 06:01:44;;;;;;;8.07;2.78;;;6.10;99.90;;;;;;10343601;28;20056;-62
2022/02/24 06:06:46;;;;;;;7.63;2.78;;;6.10;99.90;;;;;;10341498;28;20056;-62
2022/02/24 06:11:49;;;;;;;8.20;2.80;;;6.20;99.90;;;;;;10341963;28;20155;-62
2022/02/24 06:16:51;;;;;;;7.32;3.15;;;6.20;99.90;;;;;;10335469;28;20046;-62
2022/02/24 06:21:53;;;;;;;10.57;3.10;;;6.20;99.90;;;;;;10335107;28;20054;-63
2022/02/24 06:26:55;;;;;;;6.30;2.80;;;6.20;99.90;;;;;;10337457;28;20370;-63
2022/02/24 06:31:56;;;;;;;5.45;3.40;;;6.20;99.90;;;;;;10340509;28;20054;-63
2022/02/24 06:36:58;;;;;;;8.98;3.35;;;6.20;99.90;;;;;;10334753;28;20088;-63
2022/02/24 06:42:00;;;;;;;8.00;3.05;;;6.20;99.90;;;;;;10343208;28;20084;-63
2022/02/24 06:47:01;;;;;;;5.88;2.78;;;6.20;99.90;;;;;;10340456;28;20060;-63
2022/02/24 06:52:04;;;;;;;5.03;2.78;;;6.30;99.90;;;;;;10348431;28;20053;-63
2022/02/24 06:57:06;;;;;;;8.18;3.65;;;6.30;99.90;;;;;;10341505;28;20130;-63
2022/02/24 07:02:08;;;;;;;7.72;2.65;;;6.30;99.90;;;;;;10338024;28;20111;-66
2022/02/24 07:07:10;;;;;;;8.10;3.95;;;6.30;99.90;;;;;;10344373;28;20046;-66
2022/02/24 07:12:12;;;;;;;7.68;2.60;;;6.30;99.90;;;;;;10343434;28;20092;-66
2022/02/24 07:17:14;;;;;;;10.52;2.88;;;6.40;99.90;;;;;;10339534;28;20060;-66
2022/02/24 07:22:16;;;;;;;10.73;3.22;;;6.40;99.90;;;;;;10344158;28;20050;-66
2022/02/24 07:27:18;;;;;;;8.43;3.28;;;6.40;99.90;;;;;;10341982;28;20117;-66
2022/02/24 07:32:19;;;;;;;11.00;3.30;;;6.50;99.90;;;;;;10342942;28;20489;-66
2022/02/24 07:37:22;;;;;;;5.82;3.30;;;6.50;99.90;;;;;;10352134;28;20396;-66
2022/02/24 07:42:24;;;;;;;14.25;3.90;;;6.60;99.90;;;;;;10337844;28;20178;-66
2022/02/24 07:47:25;;;;;;;11.60;3.03;;;6.70;99.90;;;;;;10350725;28;20574;-66
2022/02/24 07:52:27;;;;;;;8.70;3.22;;;6.70;99.90;;;;;;10349629;28;20069;-66
2022/02/24 07:57:28;;;;;;;7.60;2.97;;;6.70;99.90;;;;;;10344225;28;20096;-66
2022/02/24 08:02:30;;;;;;;9.35;3.30;;;6.80;99.90;;;;;;10345621;28;20049;-66
2022/02/24 08:07:32;;;;;;;8.43;3.65;;;6.90;99.90;;;;;;10346688;28;20409;-66
2022/02/24 08:12:40;;;;;;;15.77;3.55;;;6.90;99.90;;;;;;10341730;28;20054;-66
2022/02/24 08:17:42;;;;;;;17.98;4.18;;;7.00;99.90;;;;;;10349630;28;20046;-66
2022/02/24 08:22:45;;;;;;;9.90;4.00;;;7.10;99.90;;;;;;10347434;28;20081;-66
2022/02/24 08:27:48;;;;;;;19.05;5.40;;;7.10;99.90;;;;;;10331293;28;20041;-66
2022/02/24 08:32:52;;;;;;;10.63;4.60;;;7.20;99.90;;;;;;10345519;28;20046;-66
2022/02/24 08:37:54;;;;;;;8.50;3.92;;;7.20;99.90;;;;;;10336168;28;20101;-66
2022/02/24 08:42:56;;;;;;;11.20;4.70;;;7.30;99.90;;;;;;10346728;28;20053;-66
2022/02/24 08:47:57;;;;;;;8.90;4.07;;;7.30;99.90;;;;;;10349430;28;20081;-66
2022/02/24 08:52:59;;;;;;;16.65;4.45;;;7.30;99.90;;;;;;10344638;28;20042;-66
2022/02/24 08:58:05;;;;;;;10.63;3.95;;;7.40;99.90;;;;;;10351141;28;20042;-66
2022/02/24 09:03:07;;;;;;;12.02;4.47;;;7.50;99.90;;;;;;10350539;28;20108;-65
2022/02/24 09:08:09;;;;;;;10.40;4.20;;;7.40;99.90;;;;;;10330717;28;20081;-66
2022/02/24 09:13:10;;;;;;;12.65;4.43;;;7.50;99.90;;;;;;10348350;28;20115;-66
2022/02/24 09:18:12;;;;;;;11.00;3.70;;;7.60;99.90;;;;;;10342765;28;20129;-66
2022/02/24 09:23:14;;;;;;;10.45;4.00;;;7.90;99.90;;;;;;10345468;28;20123;-66
2022/02/24 09:28:15;;;;;;;7.28;3.20;;;8.10;99.90;;;;;;10342771;28;20465;-66
2022/02/24 09:33:17;;;;;;;11.77;4.75;;;8.40;99.90;;;;;;10345967;28;20075;-66
2022/02/24 09:38:19;;;;;;;13.15;4.55;;;8.40;99.90;;;;;;10340221;28;20049;-66
2022/02/24 09:43:33;;;;;;;8.43;4.35;;;8.40;99.90;;;;;;10340713;28;20049;-66
2022/02/24 09:48:42;;;;;;;9.65;4.38;;;8.70;99.90;;;;;;10342708;28;20054;-66
2022/02/24 09:53:48;;;;;;;9.30;4.78;;;8.50;99.90;;;;;;10343621;28;20050;-66
2022/02/24 09:58:50;;;;;;;11.05;4.32;;;8.60;99.90;;;;;;10337944;28;20960;-66
2022/02/24 10:03:57;;;;;;;10.23;5.90;;;8.60;99.90;;;;;;10342546;28;20937;-66
2022/02/24 10:08:59;;;;;;;11.60;4.50;;;8.70;99.90;;;;;;10337573;28;20486;-66
2022/02/24 10:14:05;;;;;;;9.80;4.63;;;8.80;99.90;;;;;;10346386;28;20050;-66
2022/02/24 10:19:12;;;;;;;11.45;4.22;;;8.90;99.30;;;;;;10343891;28;20054;-66
2022/02/24 10:24:27;;;;;;;11.48;4.65;;;9.10;98.50;;;;;;10341595;28;20046;-66
2022/02/24 10:29:29;;;;;;;8.77;4.13;;;9.30;96.50;;;;;;10342499;28;20038;-66
2022/02/24 10:34:30;;;;;;;8.68;3.85;;;9.60;95.10;;;;;;10339623;28;20135;-66
2022/02/24 10:39:35;;;;;;;7.57;3.83;;;9.50;94.70;;;;;;10346883;28;20157;-66
2022/02/24 10:44:38;;;;;;;7.68;3.53;;;9.80;94.50;;;;;;10337967;28;20066;-66
2022/02/24 10:49:43;;;;;;;10.45;3.70;;;10.00;93.00;;;;;;10338225;28;20141;-67
2022/02/24 10:55:00;;;;;;;10.25;3.92;;;10.30;93.10;;;;;;10341185;28;20072;-66
2022/02/24 11:00:03;;;;;;;7.40;3.30;;;10.30;91.40;;;;;;10333747;28;20062;-66
2022/02/24 11:05:05;;;;;;;6.13;3.42;;;10.50;91.00;;;;;;10348441;28;20159;-66
2022/02/24 11:10:08;;;;;;;4.05;2.63;;;10.40;90.90;;;;;;10344107;28;20095;-66
2022/02/24 11:15:09;;;;;;;8.13;3.92;;;10.50;90.90;;;;;;10348413;28;20054;-66
2022/02/24 11:20:11;;;;;;;7.65;2.80;;;10.60;90.80;;;;;;10334777;28;20066;-66
2022/02/24 11:25:16;;;;;;;6.13;4.18;;;10.70;90.20;;;;;;10346098;28;20558;-66
2022/02/24 11:30:26;;;;;;;6.45;3.60;;;10.70;90.10;;;;;;10354971;28;20488;-66
2022/02/24 11:35:31;;;;;;;9.00;2.90;;;10.60;89.30;;;;;;10338865;28;20074;-66
2022/02/24 11:40:37;;;;;;;10.00;2.58;;;10.70;89.20;;;;;;10349220;28;20042;-66
2022/02/24 11:45:40;;;;;;;4.10;2.17;;;10.70;89.90;;;;;;10340286;28;20054;-66
2022/02/24 11:50:45;;;;;;;5.53;1.90;;;10.80;89.60;;;;;;10348517;28;20041;-64
2022/02/24 11:55:51;;;;;;;4.03;2.00;;;10.80;88.40;;;;;;10342230;28;20050;-66
2022/02/24 12:01:11;;;;;;;8.35;2.20;;;10.90;88.30;;;;;;10342700;28;20108;-66
2022/02/24 12:06:15;;;;;;;6.97;2.25;;;11.20;87.20;;;;;;10343661;28;20046;-66
2022/02/24 12:11:50;;;;;;;4.75;1.88;;;11.40;86.20;;;;;;10345252;28;20424;-66
2022/02/24 12:17:01;;;;;;;9.20;2.33;;;11.50;84.20;;;;;;10339304;28;20101;-66
2022/02/24 12:22:27;;;;;;;8.00;2.03;;;11.70;83.60;;;;;;10340091;28;20042;-66
2022/02/24 12:27:39;;;;;;;3.38;1.60;;;11.60;83.60;;;;;;10347209;28;20128;-66
2022/02/24 12:32:48;;;;;;;6.47;1.45;;;11.50;84.70;;;;;;10343088;28;20666;-65
2022/02/24 12:37:51;;;;;;;3.70;1.35;;;11.60;85.10;;;;;;10343183;28;20065;-66
2022/02/24 12:42:53;;;;;;;5.82;1.67;;;11.50;85.30;;;;;;10329735;28;20159;-65
2022/02/24 12:47:57;;;;;;;2.75;1.20;;;11.50;84.50;;;;;;10338788;28;20054;-66
2022/02/24 12:53:14;;;;;;;2.13;0.88;;;11.70;84.10;;;;;;10341154;28;20065;-66
2022/02/24 12:58:18;;;;;;;3.38;0.93;;;11.70;84.00;;;;;;10346579;28;20076;-66
2022/02/24 13:03:27;;;;;;;1.85;0.73;;;11.80;81.90;;;;;;10343152;28;20079;-66
2022/02/24 13:13:59;;;;;;;2.55;0.50;;;11.80;80.00;;;;;;10334010;28;20551;-66
2022/02/24 13:19:04;;;;;;;2.55;0.30;;;11.70;80.40;;;;;;10338841;28;20481;-66
2022/02/24 13:24:06;;;;;;;5.78;0.40;;;11.70;80.10;;;;;;10346223;28;20041;-66
2022/02/24 13:29:08;;;;;;;5.00;0.40;;;12.00;79.60;;;;;;10340732;28;20119;-66
2022/02/24 13:34:15;;;;;;;2.22;0.40;;;12.30;78.10;;;;;;10334831;28;20096;-66
2022/02/24 13:39:37;;;;;;;3.03;0.40;;;12.50;76.70;;;;;;10344638;28;20073;-66
2022/02/24 13:44:41;;;;;;;3.50;0.50;;;12.40;76.60;;;;;;10337675;28;20107;-66
2022/02/24 13:49:46;;;;;;;2.15;0.40;;;12.40;76.80;;;;;;10347555;28;20065;-66
2022/02/24 13:55:06;;;;;;;0.77;0.43;;;12.30;77.30;;;;;;10338982;28;20053;-66
2022/02/24 14:00:12;;;;;;;5.10;0.60;;;12.10;78.30;;;;;;10336150;28;20100;-66
2022/02/24 14:05:16;;;;;;;0.98;0.30;;;12.00;78.80;;;;;;10336868;28;20077;-64
2022/02/24 14:10:19;;;;;;;0.80;0.28;;;11.90;79.90;;;;;;10336660;28;20049;-66
2022/02/24 14:15:21;;;;;;;1.73;0.40;;;11.80;81.40;;;;;;10335270;28;20093;-66
2022/02/24 14:20:25;;;;;;;1.08;0.22;;;11.60;82.50;;;;;;10329991;28;20108;-64
2022/02/24 14:25:27;;;;;;;0.30;0.13;;;11.70;82.10;;;;;;10343502;28;20168;-66
2022/02/24 14:30:28;;;;;;;2.72;0.32;;;11.50;82.50;;;;;;10335117;28;20069;-64
2022/02/24 14:35:30;;;;;;;1.23;0.20;;;11.60;82.50;;;;;;10346192;28;20118;-64
2022/02/24 14:40:32;;;;;;;1.38;0.30;;;11.50;82.50;;;;;;10340468;28;20081;-66
2022/02/24 14:45:34;;;;;;;2.67;0.20;;;11.60;82.90;;;;;;10345105;28;20198;-66
2022/02/24 14:50:37;;;;;;;1.55;0.28;;;11.70;81.80;;;;;;10353588;28;20115;-66
2022/02/24 14:55:39;;;;;;;2.38;0.40;;;12.10;79.90;;;;;;10339648;28;20069;-66
2022/02/24 15:00:41;;;;;;;1.02;0.35;;;12.00;79.30;;;;;;10351934;28;20056;-66
2022/02/24 15:05:43;;;;;;;1.92;0.57;;;11.90;80.10;;;;;;10355764;28;20049;-66
2022/02/24 15:10:48;;;;;;;3.10;0.30;;;11.80;80.60;;;;;;10355395;28;20060;-66
2022/02/24 15:15:52;;;;;;;4.43;0.30;;;11.50;79.70;;;;;;10346380;28;20126;-65
2022/02/24 15:20:54;;;;;;;1.17;0.20;;;11.30;78.30;;;;;;10341432;28;20054;-66
2022/02/24 15:25:55;;;;;;;1.50;0.17;;;11.30;76.30;;;;;;10344317;28;20504;-66
2022/02/24 15:30:58;;;;;;;0.40;0.10;;;11.30;76.40;;;;;;10342523;28;20050;-66
2022/02/24 15:36:00;;;;;;;1.10;0.17;;;11.30;77.60;;;;;;10352555;28;20057;-66
2022/02/24 15:41:01;;;;;;;2.13;0.20;;;11.30;79.10;;;;;;10344435;28;20112;-66
2022/02/24 15:46:03;;;;;;;1.92;0.52;;;11.30;78.80;;;;;;10350033;28;20647;-65
2022/02/24 15:51:05;;;;;;;1.38;0.40;;;11.20;77.40;;;;;;10344474;28;20101;-66
2022/02/24 15:56:07;;;;;;;0.35;0.32;;;11.30;75.40;;;;;;10349671;28;20528;-66
2022/02/24 16:01:09;;;;;;;0.35;0.20;;;11.40;71.70;;;;;;10340860;28;20128;-66
2022/02/24 16:06:12;;;;;;;1.85;0.20;;;11.40;71.70;;;;;;10340507;28;20050;-66
2022/02/24 16:11:13;;;;;;;1.77;0.10;;;11.30;71.60;;;;;;10343395;28;20077;-66
2022/02/24 16:16:16;;;;;;;1.42;0.10;;;11.10;70.90;;;;;;10351121;28;20132;-66
2022/02/24 16:21:21;;;;;;;0.40;0.20;;;11.00;71.10;;;;;;10344146;28;20121;-66
2022/02/24 16:26:23;;;;;;;0.30;0.10;;;11.00;71.20;;;;;;10354407;28;20041;-66
2022/02/24 16:31:28;;;;;;;3.40;0.20;;;10.90;71.40;;;;;;10343862;28;20077;-65
2022/02/24 16:36:44;;;;;;;0.35;0.20;;;10.80;71.70;;;;;;10343806;28;20049;-66
2022/02/24 16:41:46;;;;;;;2.53;0.20;;;10.70;72.00;;;;;;10346356;28;20123;-63
2022/02/24 16:46:47;;;;;;;0.20;0.05;;;10.70;72.40;;;;;;10332621;28;20042;-63
2022/02/24 16:51:49;;;;;;;0.70;0.20;;;10.60;72.90;;;;;;10335650;28;20133;-63
2022/02/24 16:56:52;;;;;;;1.38;0.40;;;10.60;72.50;;;;;;10350905;28;20076;-66
2022/02/24 17:02:14;;;;;;;1.05;0.20;;;10.50;72.90;;;;;;10346579;28;20133;-63
2022/02/24 17:07:16;;;;;;;4.07;0.30;;;10.40;73.00;;;;;;10339526;28;20053;-63
2022/02/24 17:12:17;;;;;;;0.10;0.10;;;10.40;72.50;;;;;;10341942;28;20058;-66
2022/02/24 17:17:19;;;;;;;0.55;0.10;;;10.30;73.10;;;;;;10337877;28;20104;-66
2022/02/24 17:22:21;;;;;;;0.90;0.38;;;10.40;73.30;;;;;;10340875;28;20061;-64
2022/02/24 17:27:22;;;;;;;0.95;0.22;;;10.30;73.90;;;;;;10345186;28;20133;-65
2022/02/24 17:32:25;;;;;;;1.63;0.20;;;10.50;73.60;;;;;;10353398;28;20429;-60
2022/02/24 17:37:27;;;;;;;4.60;0.30;;;10.50;73.10;;;;;;10339461;28;20208;-61
2022/02/24 17:42:29;;;;;;;0.43;0.13;;;10.60;72.70;;;;;;10341006;28;20065;-62
2022/02/24 17:47:31;;;;;;;0.00;0.00;;;10.70;72.60;;;;;;10338775;28;20053;-62
2022/02/24 17:52:39;;;;;;;0.55;0.55;;;8.40;74.90;;;;;;10345042;28;20072;-62
2022/02/24 17:57:45;;;;;;;0.00;0.00;;;5.00;96.50;;;;;;10339313;28;20620;-62
2022/02/24 18:02:47;;;;;;;0.00;0.00;;;3.70;99.90;;;;;;10344500;28;20135;-62
2022/02/24 18:07:49;;;;;;;0.00;0.00;;;3.40;99.90;;;;;;10347544;28;20053;-61
2022/02/24 18:12:50;;;;;;;0.00;0.00;;;3.20;99.90;;;;;;10341483;28;20045;-62
2022/02/24 18:17:52;;;;;;;0.00;0.00;;;3.10;99.90;;;;;;10337473;28;20099;-62
2022/02/24 18:22:54;;;;;;;0.00;0.00;;;3.10;99.90;;;;;;10342270;28;20132;-62
2022/02/24 18:27:56;;;;;;;0.00;0.00;;;3.10;99.90;;;;;;10340813;28;20072;-62
2022/02/24 18:32:57;;;;;;;0.00;0.00;;;3.10;99.90;;;;;;10337865;28;20092;-62
2022/02/24 18:37:59;;;;;;;0.00;0.00;;;3.20;99.90;;;;;;10336082;28;20081;-65
2022/02/24 18:43:01;;;;;;;0.00;0.00;;;3.20;99.90;;;;;;10336037;28;20056;-64
2022/02/24 18:48:03;;;;;;;0.00;0.00;;;3.20;99.90;;;;;;10346358;28;20046;-64
2022/02/24 18:53:05;;;;;;;0.00;0.00;;;3.30;99.90;;;;;;10340066;28;20397;-62
2022/02/24 18:58:07;;;;;;;0.00;0.00;;;3.30;99.90;;;;;;10334732;28;20080;-61
2022/02/24 19:03:10;;;;;;;0.00;0.00;;;3.30;99.90;;;;;;10336034;28;20073;-62
2022/02/24 19:08:13;;;;;;;0.00;0.00;;;3.30;99.90;;;;;;10337663;28;20104;-59
2022/02/24 19:13:15;;;;;;;0.00;0.00;;;3.30;99.90;;;;;;10339426;28;20049;-62
2022/02/24 19:18:18;;;;;;;0.00;0.00;;;3.40;99.90;;;;;;10335355;28;20054;-61
2022/02/24 19:23:21;;;;;;;0.00;0.00;;;3.40;99.90;;;;;;10339892;28;20108;-61
2022/02/24 19:28:23;;;;;;;0.00;0.00;;;3.40;99.90;;;;;;10342144;28;20161;-61
2022/02/24 19:33:25;;;;;;;0.00;0.00;;;3.50;99.90;;;;;;10348215;28;20451;-62
2022/02/24 19:38:27;;;;;;;0.00;0.00;;;3.50;99.90;;;;;;10342051;28;20053;-61
2022/02/24 19:43:28;;;;;;;0.00;0.00;;;3.50;99.90;;;;;;10354256;28;20050;-61
2022/02/24 19:48:30;;;;;;;0.00;0.00;;;3.50;99.90;;;;;;10346142;28;20058;-62
2022/02/24 19:53:32;;;;;;;0.00;0.00;;;3.50;99.90;;;;;;10349021;28;20064;-61
2022/02/24 19:58:34;;;;;;;0.00;0.00;;;3.50;99.90;;;;;;10352019;28;20069;-61
2022/02/24 20:03:36;;;;;;;0.00;0.00;;;3.50;99.90;;;;;;10341376;28;20077;-62
2022/02/24 20:08:38;;;;;;;0.00;0.00;;;3.50;99.90;;;;;;10349730;28;20061;-61
2022/02/24 20:13:40;;;;;;;0.00;0.00;;;3.50;99.90;;;;;;10344289;28;20149;-62
2022/02/24 20:18:42;;;;;;;0.00;0.00;;;3.50;99.90;;;;;;10344049;28;20077;-61
2022/02/24 20:23:46;;;;;;;0.00;0.00;;;3.60;99.90;;;;;;10341262;28;20096;-61
2022/02/24 20:28:48;;;;;;;0.00;0.00;;;3.60;99.90;;;;;;10341514;28;20739;-63
2022/02/24 20:33:49;;;;;;;0.00;0.00;;;3.60;99.90;;;;;;10343759;28;20059;-61
2022/02/24 20:38:51;;;;;;;0.00;0.00;;;3.60;99.90;;;;;;10347699;28;20485;-61
2022/02/24 20:43:53;;;;;;;0.00;0.00;;;3.60;99.90;;;;;;10342670;28;20088;-62
2022/02/24 20:48:55;;;;;;;0.00;0.00;;;3.60;99.90;;;;;;10343377;28;20053;-62
2022/02/24 20:53:57;;;;;;;0.00;0.00;;;3.60;99.90;;;;;;10347352;28;20072;-62
2022/02/24 20:58:58;;;;;;;0.00;0.00;;;3.70;99.90;;;;;;10342709;28;20041;-62
2022/02/24 21:04:00;;;;;;;0.00;0.00;;;3.70;99.90;;;;;;10340872;28;20501;-62
2022/02/24 21:09:06;;;;;;;0.00;0.00;;;3.80;99.90;;;;;;10340784;28;20073;-62
2022/02/24 21:14:08;;;;;;;0.00;0.00;;;3.80;99.90;;;;;;10347109;28;20054;-62
2022/02/24 21:19:10;;;;;;;0.00;0.00;;;3.80;99.90;;;;;;10324162;28;20052;-63
2022/02/24 21:24:13;;;;;;;0.00;0.00;;;3.80;99.90;;;;;;10339550;28;20136;-63
2022/02/24 21:29:15;;;;;;;0.00;0.00;;;3.90;99.90;;;;;;10340039;28;20099;-64
2022/02/24 21:34:17;;;;;;;0.00;0.00;;;3.90;99.90;;;;;;10341265;28;20093;-63
2022/02/24 21:39:19;;;;;;;0.00;0.00;;;3.90;99.90;;;;;;10340684;28;20069;-63
2022/02/24 21:44:21;;;;;;;0.00;0.00;;;3.90;99.90;;;;;;10344111;28;20137;-63
2022/02/24 21:49:23;;;;;;;0.00;0.00;;;4.00;99.90;;;;;;10346844;28;20056;-63
2022/02/24 21:54:25;;;;;;;0.00;0.00;;;4.00;99.90;;;;;;10334907;28;20050;-62
2022/02/24 21:59:27;;;;;;;0.00;0.00;;;4.00;99.90;;;;;;10346593;28;20073;-62
2022/02/24 22:04:28;;;;;;;0.00;0.00;;;4.00;99.90;;;;;;10330097;28;20124;-63
2022/02/24 22:09:30;;;;;;;0.00;0.00;;;3.90;99.90;;;;;;10334661;28;20048;-63
2022/02/24 22:14:52;;;;;;;0.00;0.00;;;4.00;99.90;;;;;;10335414;28;20053;-63
2022/02/24 22:20:07;;;;;;;0.00;0.00;;;4.10;99.90;;;;;;10346327;28;20042;-62
2022/02/24 22:25:09;;;;;;;0.00;0.00;;;4.10;99.90;;;;;;10346863;28;20046;-62
2022/02/24 22:30:11;;;;;;;0.00;0.00;;;4.10;99.90;;;;;;10342446;28;20163;-62
2022/02/24 22:35:14;;;;;;;0.00;0.00;;;4.10;99.90;;;;;;10342372;28;20045;-62
2022/02/24 22:40:15;;;;;;;0.00;0.00;;;4.10;99.90;;;;;;10336365;28;20046;-63
2022/02/24 22:45:17;;;;;;;0.00;0.00;;;4.10;99.90;;;;;;10345212;28;20136;-63
2022/02/24 22:50:19;;;;;;;0.00;0.00;;;4.00;99.90;;;;;;10331717;28;20104;-63
2022/02/24 22:55:21;;;;;;;0.00;0.00;;;4.10;99.90;;;;;;10341468;28;20053;-64
2022/02/24 23:00:50;;;;;;;0.00;0.00;;;4.00;99.90;;;;;;10342356;28;20477;-63
2022/02/24 23:05:52;;;;;;;0.00;0.00;;;4.00;99.90;;;;;;10343326;28;20145;-63
2022/02/24 23:10:56;;;;;;;0.00;0.00;;;3.90;99.90;;;;;;10337581;28;20050;-63
2022/02/24 23:16:00;;;;;;;0.00;0.00;;;3.90;99.90;;;;;;10344348;28;20096;-63
2022/02/24 23:21:04;;;;;;;0.00;0.00;;;3.80;99.90;;;;;;10346889;28;20247;-63
2022/02/24 23:26:07;;;;;;;0.00;0.00;;;3.80;99.90;;;;;;10351789;28;20049;-62
2022/02/24 23:31:09;;;;;;;0.00;0.00;;;3.80;99.90;;;;;;10367812;28;20594;-62
2022/02/24 23:36:10;;;;;;;0.00;0.00;;;3.80;99.90;;;;;;10339781;28;20539;-61
2022/02/24 23:41:12;;;;;;;0.00;0.00;;;3.40;99.90;;;;;;10346671;28;20391;-61
2022/02/24 23:46:14;;;;;;;0.00;0.00;;;3.20;99.90;;;;;;10338714;28;20045;-62
2022/02/24 23:51:16;;;;;;;0.00;0.00;;;3.10;99.90;;;;;;10339415;28;20045;-62
2022/02/24 23:56:18;;;;;;;0.00;0.00;;;3.00;99.90;;;;;;10357041;28;20077;-62
